Time;durP1;ratioP1;P1;durP2;ratioP2;P2;SDS_P1;SDS_P2;PMS_P1;PMS_P2;Temp;Humidity;BMP_temperature;BMP_pressure;BME280_temperature;BME280_humidity;BME280_pressure;Samples;Min_cycle;Max_cycle;Signal;HPM_P1;HPM_P2
2022/04/08 00:02:12;;;;;;;6.13;1.95;;;;;;;7.69;66.44;97546.66;5061276;28;20124;-83
2022/04/08 00:04:39;;;;;;;4.47;1.20;;;;;;;7.57;66.34;97531.06;5052399;28;20110;-84
2022/04/08 00:07:05;;;;;;;2.60;0.98;;;;;;;7.63;68.37;97534.78;5065298;28;20052;-83
2022/04/08 00:09:33;;;;;;;3.63;1.00;;;;;;;7.53;68.49;97550.59;5071634;28;20044;-83
2022/04/08 00:12:00;;;;;;;3.45;0.70;;;;;;;7.63;65.07;97553.72;5066457;28;20053;-83
2022/04/08 00:14:26;;;;;;;2.90;0.93;;;;;;;7.64;66.30;97562.69;5063633;28;20504;-82
2022/04/08 00:16:53;;;;;;;3.42;1.00;;;;;;;7.52;67.19;97540.81;5066775;28;20040;-83
2022/04/08 00:19:20;;;;;;;2.97;1.00;;;;;;;7.49;66.90;97546.63;5064412;28;20553;-83
2022/04/08 00:21:48;;;;;;;3.45;0.90;;;;;;;7.52;67.31;97541.63;5052782;28;20119;-83
2022/04/08 00:24:16;;;;;;;1.25;0.70;;;;;;;7.53;65.70;97540.59;5066035;28;20076;-83
2022/04/08 00:26:45;;;;;;;3.13;0.95;;;;;;;7.49;66.28;97525.81;5070619;28;20070;-83
2022/04/08 00:29:12;;;;;;;4.03;1.50;;;;;;;7.48;66.52;97526.84;5064229;28;20128;-83
2022/04/08 00:31:39;;;;;;;1.67;0.98;;;;;;;7.54;68.11;97544.13;5060843;28;20847;-83
2022/04/08 00:34:05;;;;;;;3.90;1.10;;;;;;;7.56;67.33;97552.91;5060067;28;20259;-83
2022/04/08 00:36:32;;;;;;;10.00;1.58;;;;;;;7.51;67.73;97542.69;5052482;28;20048;-83
2022/04/08 00:38:59;;;;;;;7.00;1.13;;;;;;;7.57;68.71;97571.63;5050668;28;20475;-83
2022/04/08 00:41:25;;;;;;;7.57;1.10;;;;;;;7.55;69.28;97565.56;5051915;28;20107;-83
2022/04/08 00:43:53;;;;;;;2.55;0.80;;;;;;;7.44;70.71;97545.38;5051949;28;20143;-83
2022/04/08 00:46:20;;;;;;;5.13;0.80;;;;;;;7.46;70.73;97569.50;5053094;28;20099;-83
2022/04/08 00:48:47;;;;;;;1.40;0.75;;;;;;;7.52;70.57;97563.28;5067161;28;20044;-83
2022/04/08 00:51:15;;;;;;;3.47;0.90;;;;;;;7.54;69.86;97563.91;5060693;28;20049;-83
2022/04/08 00:53:45;;;;;;;8.07;2.65;;;;;;;7.50;72.84;97564.50;5051337;28;20136;-83
2022/04/08 00:56:11;;;;;;;3.15;1.10;;;;;;;7.50;71.88;97584.28;5052550;28;20556;-83
2022/04/08 00:58:38;;;;;;;1.88;0.77;;;;;;;7.48;74.48;97567.41;5051842;28;20538;-83
2022/04/08 01:01:06;;;;;;;4.68;1.50;;;;;;;7.44;72.99;97569.69;5062020;28;20493;-83
2022/04/08 01:03:33;;;;;;;6.13;2.08;;;;;;;7.49;73.98;97585.31;5063118;28;20045;-83
2022/04/08 01:05:59;;;;;;;5.57;1.35;;;;;;;7.45;76.11;97584.03;5064367;28;20136;-83
2022/04/08 01:08:26;;;;;;;5.40;0.80;;;;;;;7.44;76.24;97580.53;5066517;28;20386;-83
2022/04/08 01:10:54;;;;;;;3.33;0.75;;;;;;;7.33;74.31;97577.56;5056411;28;20507;-83
2022/04/08 01:13:21;;;;;;;5.68;1.20;;;;;;;7.43;75.52;97569.91;5051182;28;20049;-83
2022/04/08 01:15:47;;;;;;;6.95;1.27;;;;;;;7.32;75.06;97573.22;5057055;28;20210;-82
2022/04/08 01:18:15;;;;;;;7.13;1.20;;;;;;;7.26;75.07;97569.44;5063414;28;20076;-83
2022/04/08 01:20:42;;;;;;;5.28;0.93;;;;;;;7.27;75.59;97590.03;5058760;28;20051;-83
2022/04/08 01:23:09;;;;;;;3.75;1.02;;;;;;;7.38;76.22;97588.63;5068901;28;20051;-86
2022/04/08 01:25:37;;;;;;;5.00;1.02;;;;;;;7.24;76.49;97576.91;5071208;28;20462;-82
2022/04/08 01:28:04;;;;;;;3.10;1.10;;;;;;;7.24;75.13;97580.47;5056985;28;20055;-83
2022/04/08 01:30:30;;;;;;;5.07;1.27;;;;;;;7.34;77.00;97599.00;5058999;28;20044;-82
2022/04/08 01:32:57;;;;;;;2.67;0.82;;;;;;;7.28;74.75;97594.41;5069797;28;20467;-83
2022/04/08 01:35:24;;;;;;;4.43;1.10;;;;;;;7.32;75.08;97602.97;5066848;28;20694;-83
2022/04/08 01:37:51;;;;;;;5.65;1.00;;;;;;;7.26;73.00;97600.00;5062793;28;20465;-82
2022/04/08 01:40:17;;;;;;;7.30;1.40;;;;;;;7.29;71.61;97598.78;5066354;28;22028;-82
2022/04/08 01:42:45;;;;;;;4.32;1.15;;;;;;;7.31;72.12;97598.56;5069608;28;20045;-83
2022/04/08 01:45:13;;;;;;;5.65;1.02;;;;;;;7.25;73.83;97598.31;5059995;28;20496;-83
2022/04/08 01:47:39;;;;;;;6.28;1.15;;;;;;;7.23;70.31;97586.91;5067793;28;20588;-82
2022/04/08 01:50:07;;;;;;;4.13;0.93;;;;;;;7.33;68.82;97615.41;5052054;28;20055;-82
2022/04/08 01:52:34;;;;;;;5.40;1.27;;;;;;;7.32;71.02;97613.78;5065633;28;20131;-83
2022/04/08 01:55:01;;;;;;;6.72;1.15;;;;;;;7.25;68.79;97613.72;5063960;28;20132;-83
2022/04/08 01:57:29;;;;;;;11.48;1.45;;;;;;;7.35;67.65;97624.19;5068175;28;20128;-82
2022/04/08 01:59:57;;;;;;;4.10;1.00;;;;;;;7.29;67.20;97631.22;5053625;28;20087;-83
2022/04/08 02:02:24;;;;;;;12.68;2.60;;;;;;;7.20;69.71;97618.91;5055418;28;20562;-83
2022/04/08 02:04:50;;;;;;;9.25;2.00;;;;;;;7.19;67.58;97617.25;5056746;28;20140;-82
2022/04/08 02:07:17;;;;;;;6.57;1.00;;;;;;;7.22;68.55;97619.53;5060565;28;20496;-82
2022/04/08 02:09:43;;;;;;;4.72;1.30;;;;;;;7.29;70.13;97631.22;5065726;28;20063;-83
2022/04/08 02:12:10;;;;;;;7.68;2.00;;;;;;;7.21;69.63;97625.97;5063961;28;20127;-82
2022/04/08 02:14:37;;;;;;;6.57;1.38;;;;;;;7.22;71.24;97639.28;5069030;28;20390;-83
2022/04/08 02:17:05;;;;;;;5.00;1.25;;;;;;;7.26;73.32;97642.44;5066999;28;20044;-83
2022/04/08 02:19:32;;;;;;;7.40;1.08;;;;;;;7.25;72.95;97646.97;5054567;28;20132;-83
2022/04/08 02:21:59;;;;;;;11.50;1.30;;;;;;;7.21;72.49;97634.06;5050775;28;20067;-83
2022/04/08 02:24:26;;;;;;;6.28;1.23;;;;;;;7.13;73.70;97626.97;5050267;28;20056;-83
2022/04/08 02:26:53;;;;;;;4.18;1.00;;;;;;;7.15;73.64;97632.19;5065257;28;20041;-82
2022/04/08 02:29:22;;;;;;;8.13;1.30;;;;;;;7.15;73.99;97624.94;5068810;28;20071;-84
2022/04/08 02:31:49;;;;;;;7.43;1.17;;;;;;;7.07;76.04;97617.78;5067007;28;20409;-83
2022/04/08 02:34:17;;;;;;;3.13;1.05;;;;;;;6.96;77.83;97618.38;5052485;28;20506;-83
2022/04/08 02:36:44;;;;;;;5.22;1.58;;;;;;;6.98;78.57;97626.28;5050597;28;20057;-83
2022/04/08 02:39:10;;;;;;;5.10;1.63;;;;;;;7.05;78.31;97641.50;5052575;28;20124;-83
2022/04/08 02:41:37;;;;;;;9.05;1.17;;;;;;;6.99;79.27;97642.28;5052122;28;20049;-82
2022/04/08 02:44:04;;;;;;;6.90;1.20;;;;;;;7.01;79.32;97652.91;5052186;28;20084;-83
2022/04/08 02:46:31;;;;;;;6.60;1.13;;;;;;;6.93;81.32;97643.09;5070359;28;20041;-83
2022/04/08 02:48:57;;;;;;;11.88;1.13;;;;;;;6.90;80.58;97644.31;5058249;28;20512;-83
2022/04/08 02:51:25;;;;;;;8.40;2.30;;;;;;;7.02;81.68;97662.69;5050286;28;20056;-83
2022/04/08 02:53:52;;;;;;;4.75;1.05;;;;;;;6.97;82.05;97663.28;5053284;28;20336;-83
2022/04/08 02:56:19;;;;;;;3.35;1.00;;;;;;;6.86;79.95;97659.25;5049993;28;20072;-83
2022/04/08 02:58:48;;;;;;;8.05;1.20;;;;;;;6.86;80.79;97666.53;5050302;28;20156;-83
2022/04/08 03:01:15;;;;;;;6.35;1.30;;;;;;;6.85;79.48;97665.69;5056910;28;20044;-83
2022/04/08 03:03:42;;;;;;;14.20;1.33;;;;;;;6.86;77.01;97658.41;5069460;28;20057;-84
2022/04/08 03:06:09;;;;;;;3.70;0.95;;;;;;;6.96;76.61;97677.00;5054411;28;20159;-83
2022/04/08 03:08:37;;;;;;;11.00;1.70;;;;;;;6.80;79.34;97670.00;5058186;28;20059;-83
2022/04/08 03:11:04;;;;;;;5.55;1.63;;;;;;;6.86;78.18;97671.94;5069765;28;20048;-83
2022/04/08 03:13:30;;;;;;;5.85;1.50;;;;;;;6.90;76.46;97671.31;5061034;28;20048;-83
2022/04/08 03:15:57;;;;;;;6.97;1.25;;;;;;;6.91;78.47;97673.00;5055758;28;20553;-83
2022/04/08 03:18:24;;;;;;;4.40;0.90;;;;;;;6.83;77.46;97669.63;5064090;28;20072;-83
2022/04/08 03:20:50;;;;;;;2.95;1.00;;;;;;;6.82;78.03;97670.66;5062693;28;20053;-83
2022/04/08 03:23:17;;;;;;;5.60;1.23;;;;;;;6.71;79.37;97664.78;5055471;28;20049;-83
2022/04/08 03:25:45;;;;;;;6.30;1.20;;;;;;;6.76;78.86;97669.59;5059686;28;20056;-84
2022/04/08 03:28:12;;;;;;;9.13;2.30;;;;;;;6.60;80.14;97653.69;5057563;28;20062;-83
2022/04/08 03:30:40;;;;;;;12.23;1.23;;;;;;;6.69;81.16;97677.63;5069965;28;20131;-83
2022/04/08 03:33:08;;;;;;;8.27;1.73;;;;;;;6.56;81.81;97653.22;5057925;28;20098;-84
2022/04/08 03:35:35;;;;;;;13.45;1.33;;;;;;;6.57;80.47;97660.28;5068335;28;20041;-83
2022/04/08 03:38:02;;;;;;;8.95;1.27;;;;;;;6.64;80.22;97680.09;5055615;28;20127;-83
2022/04/08 03:40:29;;;;;;;8.35;1.00;;;;;;;6.65;79.59;97673.63;5053572;28;20068;-83
2022/04/08 03:42:57;;;;;;;5.45;1.20;;;;;;;6.50;80.74;97652.16;5052610;28;20160;-83
2022/04/08 03:45:24;;;;;;;6.15;1.42;;;;;;;6.62;81.08;97671.34;5063693;28;20060;-83
2022/04/08 03:47:51;;;;;;;6.38;1.13;;;;;;;6.50;79.50;97662.97;5065126;28;20041;-83
2022/04/08 03:50:18;;;;;;;0.95;0.68;;;;;;;6.57;79.85;97675.69;5072696;28;20466;-83
2022/04/08 03:52:45;;;;;;;2.13;0.70;;;;;;;6.54;80.90;97674.19;5066062;28;20102;-83
2022/04/08 03:55:11;;;;;;;3.40;1.50;;;;;;;6.56;80.41;97688.31;5053321;28;20480;-82
2022/04/08 03:57:38;;;;;;;8.38;1.42;;;;;;;6.57;79.73;97695.41;5053851;28;20495;-83
2022/04/08 04:00:08;;;;;;;3.65;1.05;;;;;;;6.49;80.98;97692.84;5053391;28;20261;-82
2022/04/08 04:02:35;;;;;;;7.07;1.48;;;;;;;6.63;82.07;97705.41;5053946;28;20048;-81
2022/04/08 04:05:02;;;;;;;2.72;1.08;;;;;;;6.63;82.88;97712.69;5072418;28;20102;-79
2022/04/08 04:07:29;;;;;;;7.03;1.38;;;;;;;6.55;83.80;97701.00;5066523;28;20049;-83
2022/04/08 04:09:57;;;;;;;11.30;1.40;;;;;;;6.54;83.70;97720.09;5061484;28;20088;-83
2022/04/08 04:12:24;;;;;;;7.57;1.33;;;;;;;6.51;82.87;97699.72;5065109;28;20053;-83
2022/04/08 04:14:51;;;;;;;6.35;1.13;;;;;;;6.50;80.54;97702.59;5056982;28;20055;-84
2022/04/08 04:17:19;;;;;;;9.27;1.30;;;;;;;6.44;81.01;97687.19;5068748;28;20143;-85
2022/04/08 04:19:46;;;;;;;6.03;1.25;;;;;;;6.59;79.18;97720.34;5072908;28;20053;-85
2022/04/08 04:22:12;;;;;;;4.80;1.00;;;;;;;6.54;78.76;97710.13;5069136;28;20494;-84
2022/04/08 04:38:07;;;;;;;10.10;1.35;;;;;;;6.48;79.52;97720.88;5070293;28;20110;-84
2022/04/08 04:40:34;;;;;;;6.57;1.23;;;;;;;6.44;78.93;97715.00;5073610;28;20400;-85
2022/04/08 04:43:00;;;;;;;9.90;1.00;;;;;;;6.33;78.41;97707.44;5062404;28;20061;-86
2022/04/08 04:45:27;;;;;;;6.53;1.55;;;;;;;6.44;78.77;97724.97;5052941;28;20068;-84
2022/04/08 04:47:54;;;;;;;8.65;1.23;;;;;;;6.33;78.57;97705.56;5069844;28;20131;-83
2022/04/08 04:50:20;;;;;;;9.85;1.65;;;;;;;6.41;78.62;97726.19;5067587;28;20061;-84
2022/04/08 04:52:48;;;;;;;7.78;1.17;;;;;;;6.42;78.14;97740.53;5064215;28;20136;-84
2022/04/08 04:55:16;;;;;;;10.65;1.77;;;;;;;6.31;79.04;97702.25;5072375;28;20063;-83
2022/04/08 04:57:42;;;;;;;4.07;1.15;;;;;;;6.40;80.37;97739.88;5054528;28;20057;-84
2022/04/08 05:00:10;;;;;;;13.23;1.60;;;;;;;6.35;78.96;97735.94;5052860;28;20084;-84
2022/04/08 05:02:37;;;;;;;16.67;1.70;;;;;;;6.40;78.32;97732.66;5051492;28;20090;-84
2022/04/08 05:05:06;;;;;;;8.35;1.38;;;;;;;6.33;78.51;97726.34;5057165;28;20049;-84
2022/04/08 05:07:33;;;;;;;5.30;1.13;;;;;;;6.38;78.70;97740.09;5067251;28;20106;-84
2022/04/08 05:09:59;;;;;;;17.75;2.75;;;;;;;6.35;81.42;97721.56;5065814;28;20062;-84
2022/04/08 05:12:27;;;;;;;9.27;1.27;;;;;;;6.31;79.45;97707.63;5069734;28;20491;-84
2022/04/08 05:14:54;;;;;;;10.77;1.92;;;;;;;6.37;79.60;97727.63;5070883;28;20139;-84
2022/04/08 05:17:21;;;;;;;7.03;1.30;;;;;;;6.44;81.04;97742.00;5067855;28;20076;-85
2022/04/08 05:19:47;;;;;;;6.32;2.83;;;;;;;6.47;79.72;97732.69;5065103;28;20126;-84
2022/04/08 05:22:14;;;;;;;7.15;1.40;;;;;;;6.41;80.89;97734.28;5060513;28;20051;-84
2022/04/08 05:24:44;;;;;;;8.93;1.55;;;;;;;6.39;81.62;97720.16;5058949;28;20057;-84
2022/04/08 05:27:11;;;;;;;5.45;1.50;;;;;;;6.50;80.97;97748.50;5061523;28;20048;-84
2022/04/08 05:29:39;;;;;;;5.70;1.52;;;;;;;6.47;81.72;97730.81;5064694;28;20044;-84
2022/04/08 05:32:07;;;;;;;9.77;2.22;;;;;;;6.41;81.91;97720.78;5054338;28;20124;-84
2022/04/08 05:34:33;;;;;;;4.72;1.30;;;;;;;6.51;81.69;97740.22;5051464;28;20148;-84
2022/04/08 05:37:00;;;;;;;8.57;1.95;;;;;;;6.53;82.17;97740.88;5057244;28;20076;-84
2022/04/08 05:39:27;;;;;;;9.05;1.50;;;;;;;6.48;81.47;97746.00;5071123;28;20131;-84
2022/04/08 05:41:53;;;;;;;8.25;1.45;;;;;;;6.45;82.04;97729.38;5069343;28;20052;-84
2022/04/08 05:44:20;;;;;;;8.07;1.30;;;;;;;6.49;82.00;97736.88;5066503;28;20357;-84
2022/04/08 05:46:48;;;;;;;4.25;2.38;;;;;;;6.53;83.10;97745.41;5067855;28;20076;-84
2022/04/08 05:49:15;;;;;;;14.55;2.00;;;;;;;6.54;83.87;97733.59;5057827;28;20140;-84
2022/04/08 05:51:41;;;;;;;10.70;1.27;;;;;;;6.59;83.31;97738.41;5054151;28;20147;-83
2022/04/08 05:54:08;;;;;;;11.25;1.50;;;;;;;6.59;84.12;97730.31;5070199;28;20048;-84
2022/04/08 05:56:35;;;;;;;5.28;1.05;;;;;;;6.68;82.60;97734.53;5068093;28;20049;-84
2022/04/08 05:59:01;;;;;;;7.20;1.88;;;;;;;6.63;82.75;97724.31;5056033;28;20122;-84
2022/04/08 06:01:28;;;;;;;5.35;1.33;;;;;;;6.62;82.35;97716.41;5070636;28;20131;-84
2022/04/08 06:03:56;;;;;;;9.30;1.83;;;;;;;6.77;83.03;97727.13;5070248;28;20344;-84
2022/04/08 06:06:23;;;;;;;7.55;2.22;;;;;;;6.80;82.55;97732.13;5056812;28;20056;-84
2022/04/08 06:08:50;;;;;;;6.40;2.70;;;;;;;6.75;83.97;97724.63;5069513;28;20094;-84
2022/04/08 06:11:16;;;;;;;6.68;0.93;;;;;;;6.84;82.48;97722.63;5069365;28;20176;-84
2022/04/08 06:13:46;;;;;;;7.45;1.40;;;;;;;6.73;84.77;97705.09;5062576;28;20046;-81
2022/04/08 06:16:12;;;;;;;6.80;1.50;;;;;;;6.79;85.97;97714.25;5064046;28;20512;-84
2022/04/08 06:18:39;;;;;;;10.00;2.15;;;;;;;6.86;84.65;97723.25;5055542;28;20057;-82
2022/04/08 06:21:09;;;;;;;17.33;2.15;;;;;;;6.85;86.67;97726.97;5061690;28;20049;-84
2022/04/08 06:23:35;;;;;;;8.38;1.67;;;;;;;6.90;88.24;97730.75;5061288;28;20099;-84
2022/04/08 06:26:02;;;;;;;6.00;1.60;;;;;;;6.88;87.02;97716.63;5063206;28;20040;-83
2022/04/08 06:28:28;;;;;;;12.85;2.00;;;;;;;6.92;86.72;97714.34;5063192;28;20128;-84
2022/04/08 06:30:55;;;;;;;9.48;1.30;;;;;;;6.93;87.94;97718.75;5056619;28;20044;-84
2022/04/08 06:33:23;;;;;;;4.28;1.40;;;;;;;6.84;87.19;97696.44;5062780;28;20423;-83
2022/04/08 06:35:49;;;;;;;5.15;1.30;;;;;;;7.01;86.94;97715.03;5050210;28;20144;-83
2022/04/08 06:38:17;;;;;;;7.57;1.48;;;;;;;7.11;90.27;97706.59;5049771;28;20057;-83
2022/04/08 06:40:44;;;;;;;7.43;1.25;;;;;;;7.01;85.21;97705.06;5050451;28;20053;-83
2022/04/08 06:43:11;;;;;;;6.28;1.40;;;;;;;7.05;83.68;97700.94;5053310;28;20047;-83
2022/04/08 06:45:37;;;;;;;9.65;1.95;;;;;;;7.12;85.81;97714.50;5066920;28;20044;-83
2022/04/08 06:48:05;;;;;;;6.57;1.88;;;;;;;7.07;82.79;97704.25;5069747;28;20490;-84
2022/04/08 06:50:33;;;;;;;7.05;1.00;;;;;;;6.98;80.34;97691.94;5060480;28;20652;-84
2022/04/08 06:53:00;;;;;;;5.25;1.65;;;;;;;7.06;81.08;97699.06;5049388;28;20053;-84
2022/04/08 06:55:29;;;;;;;11.05;1.27;;;;;;;7.11;80.82;97702.03;5054165;28;20048;-84
2022/04/08 06:57:58;;;;;;;3.95;1.00;;;;;;;7.05;80.45;97689.31;5050467;28;20441;-84
2022/04/08 07:00:24;;;;;;;6.72;1.25;;;;;;;7.16;78.29;97696.84;5051682;28;20064;-84
2022/04/08 07:02:51;;;;;;;4.20;1.20;;;;;;;7.00;75.66;97673.69;5067474;28;20037;-83
2022/04/08 07:05:18;;;;;;;2.33;2.08;;;;;;;7.02;75.06;97676.19;5073702;28;20051;-84
2022/04/08 07:07:45;;;;;;;2.78;1.08;;;;;;;7.14;74.86;97695.41;5066329;28;20054;-83
2022/04/08 07:10:12;;;;;;;1.65;0.80;;;;;;;7.12;77.18;97676.69;5054144;28;20139;-84
2022/04/08 07:12:40;;;;;;;7.65;0.95;;;;;;;7.24;76.78;97679.63;5057514;28;20091;-83
2022/04/08 07:15:08;;;;;;;6.38;1.20;;;;;;;7.17;77.68;97670.66;5074048;28;20053;-84
2022/04/08 07:17:36;;;;;;;4.07;1.08;;;;;;;7.31;78.80;97677.78;5066609;28;20048;-84
2022/04/08 07:20:04;;;;;;;9.23;2.30;;;;;;;7.24;76.38;97671.50;5073346;28;20393;-84
2022/04/08 07:22:32;;;;;;;2.22;0.68;;;;;;;7.16;77.43;97669.00;5056946;28;20043;-85
2022/04/08 07:24:59;;;;;;;2.55;1.00;;;;;;;7.13;82.98;97661.28;5058252;28;20487;-84
2022/04/08 07:27:25;;;;;;;6.03;1.17;;;;;;;7.02;82.92;97671.63;5073988;28;20082;-84
2022/04/08 07:29:53;;;;;;;5.35;1.52;;;;;;;6.81;86.12;97663.59;5066669;28;20120;-84
2022/04/08 07:32:21;;;;;;;7.80;1.50;;;;;;;6.64;88.55;97663.88;5051656;28;20044;-84
2022/04/08 07:34:49;;;;;;;9.30;2.05;;;;;;;6.58;92.33;97655.72;5055885;28;20060;-84
2022/04/08 07:37:16;;;;;;;3.40;1.45;;;;;;;6.70;90.46;97656.88;5068837;28;20052;-84
2022/04/08 07:39:43;;;;;;;4.35;0.90;;;;;;;6.59;92.56;97652.81;5071640;28;20053;-84
2022/04/08 07:42:11;;;;;;;8.27;1.48;;;;;;;6.47;92.31;97655.22;5057062;28;20057;-84
2022/04/08 07:44:38;;;;;;;6.75;1.35;;;;;;;6.56;94.04;97669.41;5053094;28;20068;-83
2022/04/08 07:47:07;;;;;;;8.07;1.98;;;;;;;6.48;96.50;97642.59;5069991;28;20052;-84
2022/04/08 07:49:33;;;;;;;4.78;1.75;;;;;;;6.49;96.94;97639.69;5072369;28;20056;-84
2022/04/08 08:08:50;;;;;;;3.15;0.95;;;;;;;6.23;100.00;97617.88;5053750;28;20047;-84
2022/04/08 08:11:18;;;;;;;4.40;1.23;;;;;;;6.40;100.00;97632.75;5052304;28;20051;-84
2022/04/08 08:13:45;;;;;;;3.78;1.25;;;;;;;6.39;100.00;97628.38;5052461;28;20496;-84
2022/04/08 08:16:11;;;;;;;4.72;1.23;;;;;;;6.40;100.00;97619.28;5068668;28;20131;-84
2022/04/08 08:18:41;;;;;;;5.90;1.48;;;;;;;6.45;100.00;97622.19;5070903;28;20415;-84
2022/04/08 08:21:09;;;;;;;4.10;1.13;;;;;;;6.32;100.00;97612.16;5066401;28;20052;-85
2022/04/08 08:23:35;;;;;;;1.70;0.70;;;;;;;6.14;100.00;97611.78;5065430;28;20626;-85
2022/04/08 08:26:05;;;;;;;4.15;1.17;;;;;;;5.94;100.00;97600.78;5066207;28;20227;-85
2022/04/08 08:28:31;;;;;;;2.08;0.98;;;;;;;6.09;100.00;97604.25;5062521;28;20076;-83
2022/04/08 08:31:02;;;;;;;4.25;1.48;;;;;;;5.85;100.00;97589.28;5061231;28;20764;-84
2022/04/08 08:33:28;;;;;;;3.60;1.30;;;;;;;6.11;100.00;97606.78;5069743;28;20055;-84
2022/04/08 08:35:56;;;;;;;4.28;1.15;;;;;;;5.96;100.00;97596.03;5067054;28;20136;-85
2022/04/08 08:38:23;;;;;;;4.57;1.38;;;;;;;6.02;100.00;97589.88;5064723;28;20138;-83
2022/04/08 08:40:51;;;;;;;1.45;0.82;;;;;;;6.07;100.00;97600.09;5054174;28;20094;-84
2022/04/08 08:43:19;;;;;;;1.27;1.00;;;;;;;6.12;100.00;97609.28;5053737;28;20041;-83
2022/04/08 08:45:50;;;;;;;3.08;1.58;;;;;;;6.14;100.00;97604.53;5059745;28;20071;-84
2022/04/08 08:48:17;;;;;;;2.40;1.02;;;;;;;6.25;100.00;97592.38;5072551;28;20131;-84
2022/04/08 08:50:48;;;;;;;3.22;1.13;;;;;;;6.16;100.00;97586.28;5060534;28;20491;-84
2022/04/08 08:53:18;;;;;;;2.50;0.80;;;;;;;5.88;100.00;97564.63;5053698;28;20072;-84
2022/04/08 08:55:44;;;;;;;;;;;;;;;6.05;100.00;97591.38;5067319;28;20598;-83
2022/04/08 08:58:11;;;;;;;2.55;1.10;;;;;;;6.07;100.00;97584.75;5067964;28;19927;-84
2022/04/08 09:00:39;;;;;;;2.63;0.90;;;;;;;6.08;100.00;97572.94;5064926;28;20292;-84
2022/04/08 09:03:07;;;;;;;2.22;0.93;;;;;;;6.22;100.00;97573.00;5055919;28;20048;-84
2022/04/08 09:05:42;;;;;;;1.25;0.75;;;;;;;6.13;100.00;97580.44;5055734;28;20574;-83
2022/04/08 09:08:09;;;;;;;5.15;1.17;;;;;;;6.26;100.00;97572.44;5059418;28;20060;-83
2022/04/08 09:10:39;;;;;;;2.72;1.00;;;;;;;6.23;100.00;97572.00;5062045;28;20075;-83
2022/04/08 09:13:07;;;;;;;2.73;0.60;;;;;;;6.08;100.00;97564.00;5069253;28;20047;-84
2022/04/08 09:15:37;;;;;;;1.20;0.98;;;;;;;6.13;100.00;97559.69;5066481;28;20048;-83
2022/04/08 09:18:09;;;;;;;1.55;0.80;;;;;;;6.20;100.00;97554.31;5051874;28;20151;-84
2022/04/08 09:20:41;;;;;;;3.28;0.65;;;;;;;6.35;100.00;97552.38;5051002;28;20053;-84
2022/04/08 09:23:09;;;;;;;0.65;0.65;;;;;;;6.50;100.00;97544.16;5049644;28;20452;-84
2022/04/08 09:25:35;;;;;;;2.40;0.80;;;;;;;6.35;100.00;97533.50;5060036;28;20566;-84
2022/04/08 09:28:06;;;;;;;0.88;0.68;;;;;;;6.60;100.00;97527.59;5061540;28;20051;-83
2022/04/08 09:30:33;;;;;;;2.30;0.63;;;;;;;6.63;100.00;97520.97;5056268;28;20045;-83
2022/04/08 09:32:59;;;;;;;2.22;0.80;;;;;;;6.62;100.00;97508.50;5052958;28;20052;-84
2022/04/08 09:35:27;;;;;;;1.38;0.60;;;;;;;6.65;100.00;97503.50;5059297;28;20135;-83
2022/04/08 09:37:59;;;;;;;5.72;0.90;;;;;;;6.83;100.00;97505.66;5055937;28;20044;-83
2022/04/08 09:40:26;;;;;;;4.38;1.20;;;;;;;6.83;100.00;97491.34;5051774;28;20052;-83
2022/04/08 09:42:54;;;;;;;2.72;0.93;;;;;;;6.76;100.00;97493.19;5053441;28;20044;-82
2022/04/08 09:45:27;;;;;;;5.05;1.27;;;;;;;6.82;100.00;97485.13;5058540;28;20604;-83
2022/04/08 09:47:54;;;;;;;0.90;0.90;;;;;;;6.69;100.00;97471.56;5059172;28;20476;-82
2022/04/08 09:50:20;;;;;;;3.40;1.20;;;;;;;6.78;100.00;97470.34;5057822;28;20436;-82
2022/04/08 09:52:48;;;;;;;6.18;1.70;;;;;;;6.66;100.00;97442.25;5057949;28;20404;-82
2022/04/08 09:55:17;;;;;;;7.68;3.20;;;;;;;6.66;100.00;97451.19;5065841;28;20049;-82
2022/04/08 09:57:46;;;;;;;5.20;2.42;;;;;;;6.79;100.00;97460.38;5055069;28;20059;-81
2022/04/08 10:00:14;;;;;;;3.70;1.23;;;;;;;6.72;100.00;97439.56;5068034;28;20044;-82
2022/04/08 10:02:42;;;;;;;3.25;1.17;;;;;;;6.78;100.00;97450.63;5060379;28;20090;-81
2022/04/08 10:05:10;;;;;;;4.50;1.10;;;;;;;6.95;100.00;97451.91;5070043;28;20395;-82
2022/04/08 10:07:38;;;;;;;2.92;1.35;;;;;;;6.94;100.00;97439.44;5059375;28;20395;-81
2022/04/08 10:10:14;;;;;;;4.55;0.90;;;;;;;6.67;100.00;97435.81;5054376;28;20853;-82
2022/04/08 10:12:50;;;;;;;3.88;1.23;;;;;;;6.58;100.00;97421.66;5061531;28;20055;-81
2022/04/08 10:15:25;;;;;;;1.88;0.50;;;;;;;6.42;100.00;97403.94;5063588;28;20040;-82
2022/04/08 10:17:57;;;;;;;2.95;0.70;;;;;;;6.33;100.00;97395.19;5068578;28;20056;-81
2022/04/08 10:20:24;;;;;;;1.38;0.60;;;;;;;6.33;100.00;97392.47;5069851;28;20052;-81
2022/04/08 10:22:52;;;;;;;0.43;0.43;;;;;;;6.36;100.00;97383.97;5063378;28;20083;-81
2022/04/08 10:25:22;;;;;;;23.65;10.75;;;;;;;6.41;100.00;97390.66;5065169;28;20047;-81
2022/04/08 10:27:59;;;;;;;7.15;3.88;;;;;;;6.46;100.00;97385.47;5067592;28;20492;-81
2022/04/08 10:30:26;;;;;;;2.08;1.00;;;;;;;6.38;100.00;97367.59;5063984;28;20037;-81
2022/04/08 10:32:59;;;;;;;6.70;4.60;;;;;;;6.45;100.00;97373.84;5061178;28;20044;-81
2022/04/08 10:35:27;;;;;;;3.67;2.20;;;;;;;6.42;100.00;97358.06;5059509;28;20144;-81
2022/04/08 10:37:58;;;;;;;9.70;6.63;;;;;;;6.55;100.00;97368.06;5072481;28;20106;-81
2022/04/08 10:40:32;;;;;;;7.68;3.33;;;;;;;6.57;100.00;97357.91;5068444;28;20271;-82
2022/04/08 10:43:01;;;;;;;1.08;0.90;;;;;;;6.64;100.00;97352.50;5066498;28;20076;-81
2022/04/08 10:45:27;;;;;;;2.33;1.08;;;;;;;6.62;100.00;97347.31;5054764;28;20480;-81
2022/04/08 10:47:54;;;;;;;4.85;2.50;;;;;;;6.54;100.00;97328.59;5069587;28;20393;-81
2022/04/08 10:50:26;;;;;;;4.30;1.85;;;;;;;6.65;100.00;97340.66;5059576;28;20041;-81
2022/04/08 10:53:07;;;;;;;1.92;0.90;;;;;;;6.62;100.00;97333.81;5059844;28;20489;-81
2022/04/08 10:55:47;;;;;;;1.63;0.70;;;;;;;6.56;100.00;97331.94;5055157;28;20059;-81
2022/04/08 10:58:15;;;;;;;1.25;0.60;;;;;;;6.31;100.00;97335.19;5068514;28;20500;-81
2022/04/08 11:00:42;;;;;;;4.68;1.75;;;;;;;6.48;100.00;97324.84;5062589;28;20052;-81
2022/04/08 11:03:11;;;;;;;1.75;1.10;;;;;;;6.52;100.00;97317.19;5067334;28;20385;-81
2022/04/08 11:05:38;;;;;;;0.77;0.70;;;;;;;6.49;100.00;97315.72;5061569;28;20079;-80
2022/04/08 11:08:06;;;;;;;0.40;0.40;;;;;;;6.51;100.00;97316.34;5068005;28;20048;-80
2022/04/08 11:10:33;;;;;;;0.88;0.43;;;;;;;6.71;100.00;97302.91;5058350;28;20048;-80
2022/04/08 11:13:01;;;;;;;0.60;0.50;;;;;;;6.71;100.00;97299.34;5056365;28;20504;-81
2022/04/08 11:15:30;;;;;;;1.40;0.50;;;;;;;6.76;100.00;97282.53;5053956;28;20055;-81
2022/04/08 11:17:58;;;;;;;2.13;0.70;;;;;;;6.68;100.00;97270.88;5067822;28;20075;-81
2022/04/08 11:20:25;;;;;;;0.40;0.40;;;;;;;6.83;100.00;97267.16;5056840;28;20491;-80
2022/04/08 11:22:53;;;;;;;0.40;0.40;;;;;;;6.66;100.00;97264.84;5057952;28;20045;-80
2022/04/08 11:25:21;;;;;;;0.20;0.20;;;;;;;6.57;100.00;97259.88;5062216;28;20048;-80
2022/04/08 11:27:57;;;;;;;0.20;0.20;;;;;;;6.55;100.00;97254.69;5064295;28;20056;-81
2022/04/08 11:30:25;;;;;;;2.80;0.30;;;;;;;6.52;100.00;97247.00;5067749;28;20206;-81
2022/04/08 11:32:52;;;;;;;2.03;0.40;;;;;;;6.40;100.00;97243.22;5055482;28;20052;-83
2022/04/08 11:35:19;;;;;;;0.30;0.30;;;;;;;6.32;100.00;97226.22;5062692;28;20041;-80
2022/04/08 11:37:45;;;;;;;1.17;0.47;;;;;;;6.43;100.00;97232.88;5064502;28;20040;-80
2022/04/08 11:40:17;;;;;;;0.35;0.35;;;;;;;6.36;100.00;97224.75;5060490;28;20128;-80
2022/04/08 11:42:44;;;;;;;0.98;0.40;;;;;;;6.27;100.00;97215.19;5059142;28;20492;-80
2022/04/08 11:45:11;;;;;;;0.30;0.30;;;;;;;6.30;100.00;97214.78;5056559;28;20080;-80
2022/04/08 11:47:46;;;;;;;0.30;0.30;;;;;;;6.36;100.00;97213.13;5069834;28;20083;-80
2022/04/08 11:50:13;;;;;;;0.30;0.30;;;;;;;6.40;100.00;97194.63;5058003;28;20048;-80
2022/04/08 11:52:40;;;;;;;1.10;0.32;;;;;;;6.34;100.00;97210.63;5066312;28;20041;-80
2022/04/08 11:55:09;;;;;;;0.40;0.40;;;;;;;6.41;100.00;97185.50;5070322;28;20416;-80
2022/04/08 11:57:38;;;;;;;1.85;1.23;;;;;;;6.06;100.00;97151.44;5058793;28;20084;-80
2022/04/08 12:33:45;;;;;;;1.85;0.60;;;;;;;6.02;100.00;97124.06;5060404;28;20044;-81
2022/04/08 12:36:13;;;;;;;0.65;0.45;;;;;;;6.12;100.00;97139.81;5063054;28;20036;-81
2022/04/08 12:38:41;;;;;;;1.80;0.65;;;;;;;6.34;100.00;97123.44;5056538;28;20049;-81
2022/04/08 12:41:09;;;;;;;1.90;0.40;;;;;;;6.31;100.00;97124.69;5052032;28;20052;-81
2022/04/08 12:43:36;;;;;;;1.27;0.40;;;;;;;6.36;100.00;97105.16;5051653;28;20048;-82
2022/04/08 12:46:03;;;;;;;0.50;0.40;;;;;;;6.25;100.00;97086.91;5051867;28;20515;-81